Time;durP1;ratioP1;P1;durP2;ratioP2;P2;SDS_P1;SDS_P2;PMS_P1;PMS_P2;Temp;Humidity;BMP_temperature;BMP_pressure;BME280_temperature;BME280_humidity;BME280_pressure;Samples;Min_cycle;Max_cycle;Signal;HPM_P1;HPM_P2
2023/04/24 00:00:40;;;;;;;;;7.00;4.67;;;;;12.25;60.60;100134.88;2090733;28;45820;-70
2023/04/24 00:01:42;;;;;;;;;4.00;4.00;;;;;12.28;60.35;100128.56;2093520;28;46939;-70
2023/04/24 00:02:47;;;;;;;;;3.00;3.00;;;;;12.28;60.43;100131.22;2093921;28;46113;-71
2023/04/24 00:03:47;;;;;;;;;5.00;5.00;;;;;12.28;60.34;100141.88;2097625;28;45671;-69
2023/04/24 00:04:48;;;;;;;;;3.33;3.33;;;;;12.27;60.62;100134.81;2093393;28;46047;-70
2023/04/24 00:05:49;;;;;;;;;4.00;4.00;;;;;12.23;60.56;100134.06;2094832;28;45513;-70
2023/04/24 00:06:53;;;;;;;;;4.00;4.00;;;;;12.21;60.52;100135.06;2096579;28;46287;-70
2023/04/24 00:07:55;;;;;;;;;5.00;5.00;;;;;12.19;60.61;100128.91;2087136;28;46226;-68
2023/04/24 00:08:55;;;;;;;;;2.50;2.50;;;;;12.18;60.92;100133.34;2089037;28;46433;-70
2023/04/24 00:09:56;;;;;;;;;5.00;5.00;;;;;12.18;60.71;100135.16;2082986;28;46307;-69
2023/04/24 00:10:56;;;;;;;;;4.00;4.00;;;;;12.16;60.91;100132.56;2080750;28;45552;-70
2023/04/24 00:11:57;;;;;;;;;5.00;5.00;;;;;12.15;61.14;100135.28;2080771;28;46873;-69
2023/04/24 00:12:57;;;;;;;;;4.33;4.33;;;;;12.15;60.98;100136.13;2084978;28;44900;-70
2023/04/24 00:13:58;;;;;;;;;4.67;4.67;;;;;12.14;61.06;100137.06;2088307;28;46574;-70
2023/04/24 00:15:00;;;;;;;;;4.33;3.00;;;;;12.16;61.00;100144.97;2081795;28;45527;-70
2023/04/24 00:16:00;;;;;;;;;5.50;5.50;;;;;12.15;60.98;100141.47;2086141;28;46934;-70
2023/04/24 00:17:02;;;;;;;;;2.67;2.67;;;;;12.14;61.00;100138.84;2097650;28;46697;-70
2023/04/24 00:18:02;;;;;;;;;2.75;2.75;;;;;12.11;60.78;100147.81;2089931;28;45535;-71
2023/04/24 00:19:02;;;;;;;;;5.33;4.67;;;;;12.07;61.26;100160.38;2089519;28;45450;-69
2023/04/24 00:20:06;;;;;;;;;6.67;5.67;;;;;12.06;61.10;100150.63;2085309;28;45864;-69
2023/04/24 00:21:07;;;;;;;;;3.00;3.00;;;;;12.05;61.02;100154.22;2088973;28;46273;-70
2023/04/24 00:22:07;;;;;;;;;3.67;3.33;;;;;12.06;61.14;100157.75;2089294;28;45090;-69
2023/04/24 00:23:07;;;;;;;;;4.00;4.00;;;;;12.07;61.52;100148.88;2089129;28;46586;-69
2023/04/24 00:24:11;;;;;;;;;5.33;4.67;;;;;12.06;61.28;100145.31;2092373;28;46262;-69
2023/04/24 00:25:11;;;;;;;;;4.00;4.00;;;;;12.06;61.23;100149.78;2097461;28;46483;-71
2023/04/24 00:26:12;;;;;;;;;5.00;4.00;;;;;12.06;61.26;100152.44;2096814;28;47021;-70
2023/04/24 00:27:12;;;;;;;;;4.00;4.00;;;;;12.04;61.92;100151.63;2096707;28;46848;-70
2023/04/24 00:28:12;;;;;;;;;6.00;5.00;;;;;12.02;61.40;100148.16;2105131;28;46233;-70
2023/04/24 00:29:13;;;;;;;;;4.33;4.33;;;;;11.99;61.44;100156.25;2097146;28;45851;-70
2023/04/24 00:30:13;;;;;;;;;3.33;3.33;;;;;11.97;61.37;100150.13;2097322;28;46234;-69
2023/04/24 00:31:13;;;;;;;;;4.67;4.67;;;;;11.96;61.58;100162.56;2088410;28;45635;-71
2023/04/24 00:32:14;;;;;;;;;4.33;4.00;;;;;11.94;61.46;100163.50;2083459;28;46235;-70
2023/04/24 00:33:14;;;;;;;;;4.00;4.00;;;;;11.92;61.80;100158.25;2089364;28;45380;-69
2023/04/24 00:34:15;;;;;;;;;5.00;4.00;;;;;11.90;61.72;100164.56;2093245;28;47350;-70
2023/04/24 00:35:15;;;;;;;;;4.33;4.33;;;;;11.88;61.84;100153.97;2089272;28;44821;-70
2023/04/24 00:36:16;;;;;;;;;4.00;4.00;;;;;11.89;61.99;100163.69;2088911;28;46602;-69
2023/04/24 00:37:16;;;;;;;;;4.33;4.33;;;;;11.90;62.10;100165.41;2089263;28;46193;-70
2023/04/24 00:38:17;;;;;;;;;1.67;1.67;;;;;11.88;62.15;100161.94;2088985;28;46864;-69
2023/04/24 00:39:18;;;;;;;;;4.00;4.00;;;;;11.86;61.92;100163.81;2096420;28;46826;-69
2023/04/24 00:40:19;;;;;;;;;4.00;4.00;;;;;11.85;62.10;100162.06;2094551;28;46930;-70
2023/04/24 00:41:20;;;;;;;;;4.33;4.00;;;;;11.84;61.97;100168.31;2088784;28;47426;-69
2023/04/24 00:42:21;;;;;;;;;3.25;3.25;;;;;11.84;62.46;100172.75;2088740;28;45124;-70
2023/04/24 00:43:21;;;;;;;;;4.67;4.33;;;;;11.83;62.18;100174.56;2087561;28;47172;-71
2023/04/24 00:44:21;;;;;;;;;5.00;5.00;;;;;11.82;62.26;100175.47;2088848;28;46473;-70
2023/04/24 00:45:22;;;;;;;;;5.00;5.00;;;;;11.79;62.32;100176.44;2088524;28;46388;-70
2023/04/24 00:46:22;;;;;;;;;4.00;4.00;;;;;11.77;62.28;100178.25;2088703;28;45698;-70
2023/04/24 00:47:23;;;;;;;;;4.00;4.00;;;;;11.77;62.36;100177.38;2095834;28;47245;-70
2023/04/24 00:48:24;;;;;;;;;4.25;3.75;;;;;11.75;62.40;100179.22;2094854;28;46806;-70
2023/04/24 00:49:25;;;;;;;;;5.00;5.00;;;;;11.73;62.39;100186.41;2088756;28;46908;-70
2023/04/24 00:50:26;;;;;;;;;4.00;4.00;;;;;11.73;62.56;100187.25;2094012;28;46466;-70
2023/04/24 00:51:27;;;;;;;;;4.00;4.00;;;;;11.73;63.19;100181.94;2094316;28;47197;-70
2023/04/24 00:52:28;;;;;;;;;5.00;5.00;;;;;11.73;62.52;100181.94;2097312;28;45215;-69
2023/04/24 00:53:28;;;;;;;;;5.00;4.00;;;;;11.73;62.68;100184.59;2097438;28;46030;-69
2023/04/24 00:54:29;;;;;;;;;6.67;5.33;;;;;11.74;62.48;100188.13;2096283;28;47619;-69
2023/04/24 00:55:30;;;;;;;;;4.00;4.00;;;;;11.74;62.58;100185.47;2088748;28;46804;-70
2023/04/24 00:56:30;;;;;;;;;5.00;5.00;;;;;11.74;62.58;100183.69;2088250;28;45556;-69
2023/04/24 00:57:31;;;;;;;;;5.33;5.33;;;;;11.74;62.48;100189.00;2087645;28;46709;-70
2023/04/24 00:58:31;;;;;;;;;3.33;2.33;;;;;11.75;62.34;100189.88;2088960;28;45495;-70
2023/04/24 00:59:32;;;;;;;;;3.00;3.00;;;;;11.74;62.71;100190.78;2089339;28;45693;-72
2023/04/24 01:00:32;;;;;;;;;3.33;3.33;;;;;11.73;62.48;100189.91;2088615;28;46797;-70
2023/04/24 01:01:34;;;;;;;;;4.00;4.00;;;;;11.73;62.60;100195.25;2088978;28;45839;-70
2023/04/24 01:02:34;;;;;;;;;3.00;3.00;;;;;11.74;62.92;100193.44;2088524;28;45094;-70
2023/04/24 01:03:36;;;;;;;;;3.00;3.00;;;;;11.76;62.63;100199.56;2090631;28;45865;-71
2023/04/24 01:04:39;;;;;;;;;3.50;3.50;;;;;11.75;62.60;100188.06;2093000;28;46084;-71
2023/04/24 01:05:39;;;;;;;;;4.00;4.00;;;;;11.75;62.91;100195.19;2085784;28;45258;-70
2023/04/24 01:06:40;;;;;;;;;2.00;2.00;;;;;11.75;62.47;100203.16;2088918;28;45241;-70
2023/04/24 01:07:45;;;;;;;;;4.75;4.25;;;;;11.75;62.81;100193.38;2089367;28;47560;-70
2023/04/24 01:08:47;;;;;;;;;4.50;4.00;;;;;11.77;62.84;100196.00;2087912;28;46921;-70
2023/04/24 01:09:50;;;;;;;;;4.25;4.00;;;;;11.78;62.58;100198.59;2089331;28;46017;-71
2023/04/24 01:10:52;;;;;;;;;5.67;3.33;;;;;11.78;62.75;100189.75;2094894;28;45554;-70
2023/04/24 01:11:52;;;;;;;;;3.50;3.50;;;;;11.78;62.44;100209.22;2088468;28;46056;-71
2023/04/24 01:12:53;;;;;;;;;3.33;3.00;;;;;11.78;62.91;100192.41;2091942;28;46004;-69
2023/04/24 01:13:53;;;;;;;;;2.67;2.67;;;;;11.78;62.89;100200.38;2087637;28;46754;-69
2023/04/24 01:14:55;;;;;;;;;4.00;4.00;;;;;11.79;62.77;100197.69;2088665;28;46081;-70
2023/04/24 01:15:55;;;;;;;;;4.75;4.75;;;;;11.81;62.68;100194.13;2096409;28;46341;-70
2023/04/24 01:16:57;;;;;;;;;3.33;3.00;;;;;11.80;62.84;100187.94;2093586;28;46347;-69
2023/04/24 01:17:57;;;;;;;;;2.00;2.00;;;;;11.80;62.65;100190.59;2104128;28;45955;-71
2023/04/24 01:18:58;;;;;;;;;3.33;3.33;;;;;11.81;62.60;100191.47;2095728;28;45827;-69
2023/04/24 01:19:59;;;;;;;;;2.67;2.67;;;;;11.79;62.59;100189.72;2095339;28;46731;-69
2023/04/24 01:21:03;;;;;;;;;5.00;3.00;;;;;11.81;62.44;100197.63;2087230;28;46897;-70
2023/04/24 01:22:10;;;;;;;;;4.00;3.25;;;;;11.79;62.69;100186.19;2092701;28;47217;-70
2023/04/24 01:23:10;;;;;;;;;7.00;4.00;;;;;11.78;62.62;100187.97;2088928;28;46886;-70
2023/04/24 01:24:11;;;;;;;;;3.67;3.67;;;;;11.78;62.72;100187.09;2095810;28;45509;-70
2023/04/24 01:25:12;;;;;;;;;4.50;4.00;;;;;11.77;62.69;100183.56;2101354;28;46518;-71
2023/04/24 01:26:16;;;;;;;;;4.00;4.00;;;;;11.76;62.89;100187.16;2104558;28;46368;-70
2023/04/24 01:27:17;;;;;;;;;4.75;4.00;;;;;11.76;62.79;100186.28;2103292;28;46244;-71
2023/04/24 01:28:17;;;;;;;;;6.33;5.00;;;;;11.75;62.58;100190.72;2088395;28;45788;-70
2023/04/24 01:29:18;;;;;;;;;3.67;3.67;;;;;11.76;62.72;100183.63;2088750;28;46620;-69
2023/04/24 01:30:19;;;;;;;;;2.75;2.75;;;;;11.75;62.89;100188.06;2094478;28;46903;-70
2023/04/24 01:31:20;;;;;;;;;4.00;3.00;;;;;11.75;63.02;100184.53;2082460;28;46408;-70
2023/04/24 01:32:20;;;;;;;;;3.00;3.00;;;;;11.75;62.85;100190.72;2088026;28;46167;-69
2023/04/24 01:33:21;;;;;;;;;4.00;3.00;;;;;11.75;62.77;100187.19;2087949;28;46776;-69
2023/04/24 01:34:22;;;;;;;;;3.00;3.00;;;;;11.75;63.04;100192.53;2088256;28;46966;-70
2023/04/24 01:35:22;;;;;;;;;4.67;3.33;;;;;11.75;63.02;100190.72;2088358;28;46519;-70
2023/04/24 01:36:23;;;;;;;;;4.33;4.33;;;;;11.75;62.91;100188.06;2088516;28;45150;-70
2023/04/24 01:37:24;;;;;;;;;7.25;5.00;;;;;11.75;62.90;100184.53;2088729;28;45969;-70
2023/04/24 01:38:24;;;;;;;;;5.00;4.00;;;;;11.74;63.01;100196.97;2094168;28;46932;-69
2023/04/24 01:39:27;;;;;;;;;3.67;3.00;;;;;11.72;62.99;100190.84;2086552;28;45096;-69
2023/04/24 01:40:28;;;;;;;;;6.00;5.75;;;;;11.72;63.03;100200.59;2087824;28;46779;-69
2023/04/24 01:41:29;;;;;;;;;4.33;4.33;;;;;11.73;63.06;100197.03;2092795;28;44981;-69
2023/04/24 01:42:30;;;;;;;;;5.00;5.00;;;;;11.73;63.10;100197.91;2087730;28;46549;-71
2023/04/24 01:43:31;;;;;;;;;4.00;3.00;;;;;11.74;63.04;100199.63;2103242;28;45049;-69
2023/04/24 01:44:33;;;;;;;;;5.00;3.75;;;;;11.75;62.92;100196.03;2099653;28;48263;-69
2023/04/24 01:45:33;;;;;;;;;2.00;2.00;;;;;11.75;62.92;100190.72;2095197;28;46353;-70
2023/04/24 01:46:35;;;;;;;;;4.67;3.00;;;;;11.75;62.98;100203.16;2086994;28;46258;-70
2023/04/24 01:47:36;;;;;;;;;3.00;3.00;;;;;11.76;62.83;100204.88;2087658;28;47227;-71
2023/04/24 01:48:36;;;;;;;;;4.00;3.00;;;;;11.75;62.72;100203.16;2088216;28;45833;-70
2023/04/24 01:49:38;;;;;;;;;2.67;2.67;;;;;11.73;62.77;100205.88;2084673;28;45741;-69
2023/04/24 01:50:39;;;;;;;;;4.50;3.25;;;;;11.72;62.83;100203.28;2088731;28;45454;-70
2023/04/24 01:51:39;;;;;;;;;3.67;3.33;;;;;11.70;62.92;100207.78;2090723;28;45224;-69
2023/04/24 01:52:40;;;;;;;;;3.00;3.00;;;;;11.68;62.98;100205.13;2085145;28;46603;-71
2023/04/24 01:53:40;;;;;;;;;4.00;2.67;;;;;11.68;63.18;100210.47;2088472;28;46760;-70
2023/04/24 01:54:40;;;;;;;;;5.67;5.00;;;;;11.70;63.16;100213.97;2087207;28;46598;-69
2023/04/24 01:55:41;;;;;;;;;4.67;3.00;;;;;11.69;63.11;100212.22;2091541;28;46509;-70
2023/04/24 01:56:42;;;;;;;;;3.33;3.33;;;;;11.68;63.30;100210.47;2096837;28;46531;-69
2023/04/24 01:57:43;;;;;;;;;4.00;4.00;;;;;11.70;63.01;100213.97;2089314;28;45726;-71
2023/04/24 01:58:43;;;;;;;;;4.67;4.00;;;;;11.71;62.90;100214.81;2088472;28;48155;-70
2023/04/24 01:59:44;;;;;;;;;2.00;2.00;;;;;11.70;63.18;100210.44;2080375;28;45258;-71
2023/04/24 02:00:44;;;;;;;;;4.00;4.00;;;;;11.71;63.14;100212.16;2095224;28;46197;-69
2023/04/24 02:01:44;;;;;;;;;3.00;3.00;;;;;11.71;63.20;100210.38;2096804;28;46243;-70
2023/04/24 02:02:45;;;;;;;;;3.00;3.00;;;;;11.72;63.05;100216.56;2096819;28;46535;-70
2023/04/24 02:03:45;;;;;;;;;3.67;3.67;;;;;11.71;63.16;100221.00;2094106;28;46314;-69
2023/04/24 02:04:45;;;;;;;;;4.33;4.33;;;;;11.72;63.17;100212.13;2088936;28;45736;-69
2023/04/24 02:05:46;;;;;;;;;3.00;3.00;;;;;11.72;63.24;100214.78;2093476;28;45516;-71
2023/04/24 02:06:46;;;;;;;;;3.00;3.00;;;;;11.72;63.01;100214.78;2091206;28;45528;-69
2023/04/24 02:07:46;;;;;;;;;2.33;2.33;;;;;11.72;62.90;100211.25;2089718;28;46071;-70
2023/04/24 02:08:47;;;;;;;;;3.00;3.00;;;;;11.71;63.15;100222.81;2087769;28;45768;-71
2023/04/24 02:09:47;;;;;;;;;5.33;3.33;;;;;11.68;63.16;100214.91;2088053;28;45930;-69
2023/04/24 02:10:48;;;;;;;;;5.00;4.00;;;;;11.66;63.18;100220.28;2095743;28;46667;-70
2023/04/24 02:11:48;;;;;;;;;3.00;3.00;;;;;11.67;63.04;100221.16;2100168;28;45501;-70
2023/04/24 02:12:48;;;;;;;;;3.00;3.00;;;;;11.66;63.17;100217.63;2096128;28;46715;-70
2023/04/24 02:13:50;;;;;;;;;3.67;3.67;;;;;11.66;62.93;100217.63;2087487;28;46505;-70
2023/04/24 02:14:50;;;;;;;;;3.00;3.00;;;;;11.65;63.21;100225.66;2090694;28;45784;-70
2023/04/24 02:15:50;;;;;;;;;4.00;3.00;;;;;11.64;63.16;100219.47;2092947;28;46782;-70
2023/04/24 02:16:51;;;;;;;;;2.00;2.00;;;;;11.63;62.98;100223.03;2093839;28;46480;-70
2023/04/24 02:17:51;;;;;;;;;3.00;3.00;;;;;11.62;63.20;100215.13;2089198;28;46227;-69
2023/04/24 02:18:51;;;;;;;;;4.00;4.00;;;;;11.63;63.00;100222.19;2096094;28;46784;-69
2023/04/24 02:19:52;;;;;;;;;3.33;3.33;;;;;11.62;63.15;100225.75;2089217;28;45519;-70
2023/04/24 02:20:52;;;;;;;;;4.00;4.00;;;;;11.61;63.27;100216.91;2084749;28;46532;-70
2023/04/24 02:21:53;;;;;;;;;5.33;3.00;;;;;11.63;63.31;100222.19;2086994;28;46413;-69
2023/04/24 02:22:53;;;;;;;;;4.67;4.67;;;;;11.62;63.29;100225.75;2087187;28;46610;-69
2023/04/24 02:23:54;;;;;;;;;3.00;3.00;;;;;11.63;63.26;100228.38;2087166;28;46325;-71
2023/04/24 02:24:55;;;;;;;;;5.33;4.33;;;;;11.64;63.52;100223.91;2088284;28;45757;-70
2023/04/24 02:25:55;;;;;;;;;3.00;3.00;;;;;11.67;63.57;100229.13;2088269;28;46044;-70
2023/04/24 02:26:56;;;;;;;;;4.67;3.33;;;;;11.69;63.23;100222.00;2087356;28;46450;-70
2023/04/24 02:27:56;;;;;;;;;3.67;2.00;;;;;11.67;63.08;100224.66;2087008;28;46531;-70
2023/04/24 02:28:57;;;;;;;;;5.33;5.33;;;;;11.67;63.21;100229.13;2084813;28;46547;-69
2023/04/24 02:29:57;;;;;;;;;3.00;3.00;;;;;11.65;63.37;100236.28;2087864;28;46556;-70
2023/04/24 02:30:58;;;;;;;;;5.00;5.00;;;;;11.62;63.15;100236.38;2095045;28;46100;-70
2023/04/24 02:31:58;;;;;;;;;3.00;3.00;;;;;11.61;63.16;100227.56;2088696;28;45708;-69
2023/04/24 02:32:59;;;;;;;;;4.00;3.00;;;;;11.60;63.40;100231.13;2087798;28;46307;-70
2023/04/24 02:33:59;;;;;;;;;4.33;3.67;;;;;11.59;63.25;100228.53;2091930;28;46488;-70
2023/04/24 02:35:00;;;;;;;;;4.33;4.00;;;;;11.58;63.38;100221.47;2092612;28;45070;-70
2023/04/24 02:36:01;;;;;;;;;6.00;3.00;;;;;11.56;63.59;100232.16;2087307;28;46638;-69
2023/04/24 02:37:01;;;;;;;;;4.75;3.00;;;;;11.53;63.33;100232.25;2090381;28;46197;-70
2023/04/24 02:38:02;;;;;;;;;5.00;5.00;;;;;11.53;63.44;100236.69;2096558;28;46589;-71
2023/04/24 02:39:03;;;;;;;;;3.50;3.50;;;;;11.51;63.58;100231.44;2095068;28;46298;-70
2023/04/24 02:40:05;;;;;;;;;2.67;2.67;;;;;11.51;63.77;100250.03;2096888;28;45914;-70
2023/04/24 02:41:06;;;;;;;;;5.00;3.75;;;;;11.50;63.67;100242.97;2089431;28;45717;-69
2023/04/24 02:42:07;;;;;;;;;3.67;2.67;;;;;11.51;63.91;100242.06;2092235;28;45723;-70
2023/04/24 02:43:08;;;;;;;;;3.00;3.00;;;;;11.51;63.83;100244.72;2096911;28;47053;-70
2023/04/24 02:44:08;;;;;;;;;3.00;3.00;;;;;11.54;63.82;100244.59;2096190;28;46471;-68
2023/04/24 02:45:09;;;;;;;;;5.00;5.00;;;;;11.54;63.78;100241.94;2087828;28;46377;-69
2023/04/24 02:46:09;;;;;;;;;2.33;2.33;;;;;11.54;63.64;100251.72;2088405;28;46252;-70
2023/04/24 02:47:10;;;;;;;;;2.67;2.67;;;;;11.53;63.90;100247.31;2094064;28;45768;-69
2023/04/24 02:48:10;;;;;;;;;3.67;3.00;;;;;11.50;63.78;100242.97;2096608;28;46816;-69
2023/04/24 02:49:11;;;;;;;;;4.00;4.00;;;;;11.48;63.77;100245.69;2088545;28;46409;-70
2023/04/24 02:50:12;;;;;;;;;5.00;4.00;;;;;11.45;63.73;100245.81;2091543;28;46894;-70
2023/04/24 02:51:12;;;;;;;;;3.00;3.00;;;;;11.44;64.04;100238.75;2096763;28;46638;-70
2023/04/24 02:52:13;;;;;;;;;5.00;3.67;;;;;11.44;64.16;100245.84;2103160;28;46321;-70
2023/04/24 02:53:13;;;;;;;;;3.33;3.33;;;;;11.46;64.16;100244.00;2100997;28;46886;-69
2023/04/24 02:54:14;;;;;;;;;5.67;5.67;;;;;11.46;63.90;100239.56;2087224;28;46695;-70
2023/04/24 02:55:14;;;;;;;;;4.33;3.67;;;;;11.48;63.94;100243.03;2087100;28;47021;-69
2023/04/24 02:56:14;;;;;;;;;5.33;3.00;;;;;11.49;64.08;100250.09;2081028;28;46338;-69
2023/04/24 02:57:15;;;;;;;;;3.00;3.00;;;;;11.48;63.76;100256.31;2091831;28;46502;-69
2023/04/24 02:58:15;;;;;;;;;4.00;4.00;;;;;11.50;63.93;100251.81;2081853;28;46433;-69
2023/04/24 02:59:16;;;;;;;;;4.33;4.33;;;;;11.52;64.00;100256.22;2093045;28;46878;-70
2023/04/24 03:00:16;;;;;;;;;6.67;5.00;;;;;11.50;63.90;100251.81;2087101;28;47461;-70
2023/04/24 03:01:17;;;;;;;;;3.00;3.00;;;;;11.50;63.98;100254.47;2087559;28;45579;-69
2023/04/24 03:02:18;;;;;;;;;3.00;3.00;;;;;11.50;64.02;100254.47;2079111;28;46892;-70
2023/04/24 03:03:18;;;;;;;;;4.00;4.00;;;;;11.49;64.24;100249.22;2082423;28;46717;-69
2023/04/24 03:04:20;;;;;;;;;4.00;4.00;;;;;11.50;64.09;100254.47;2088135;28;46307;-69
2023/04/24 03:05:20;;;;;;;;;4.75;3.50;;;;;11.52;64.26;100253.56;2095078;28;46948;-69
2023/04/24 03:06:21;;;;;;;;;3.00;3.00;;;;;11.53;64.13;100256.16;2095826;28;45551;-69
2023/04/24 03:07:21;;;;;;;;;3.33;3.00;;;;;11.54;63.94;100255.25;2089724;28;46011;-70
2023/04/24 03:08:21;;;;;;;;;1.00;1.00;;;;;11.54;64.10;100262.34;2088055;28;46603;-69
2023/04/24 03:09:22;;;;;;;;;4.00;3.00;;;;;11.54;63.90;100257.03;2088010;28;46718;-69
2023/04/24 03:10:22;;;;;;;;;4.00;4.00;;;;;11.55;63.96;100254.31;2085920;28;46169;-69
2023/04/24 03:11:22;;;;;;;;;4.67;3.33;;;;;11.55;64.36;100254.31;2084085;28;46456;-69
2023/04/24 03:12:23;;;;;;;;;1.00;1.00;;;;;11.54;64.07;100259.69;2085064;28;46252;-69
2023/04/24 03:13:24;;;;;;;;;4.33;4.33;;;;;11.53;64.18;100265.91;2083378;28;46609;-69
2023/04/24 03:14:24;;;;;;;;;3.67;3.67;;;;;11.52;64.13;100265.06;2088849;28;46408;-68
2023/04/24 03:15:25;;;;;;;;;2.00;2.00;;;;;11.52;64.29;100261.53;2089877;28;45896;-69
2023/04/24 03:16:25;;;;;;;;;2.00;2.00;;;;;11.52;64.03;100261.53;2088910;28;45941;-70
2023/04/24 03:17:26;;;;;;;;;3.33;3.33;;;;;11.52;64.17;100259.72;2089546;28;46125;-69
2023/04/24 03:18:26;;;;;;;;;3.00;3.00;;;;;11.53;64.41;100260.59;2089444;28;45767;-69
2023/04/24 03:19:26;;;;;;;;;4.33;3.67;;;;;11.55;64.06;100269.38;2089043;28;44997;-69
2023/04/24 03:20:27;;;;;;;;;6.33;5.33;;;;;11.53;64.32;100263.25;2089079;28;46472;-69
2023/04/24 03:21:27;;;;;;;;;5.00;5.00;;;;;11.53;64.55;100264.13;2095437;28;46443;-69
2023/04/24 03:22:27;;;;;;;;;3.25;3.00;;;;;11.53;64.37;100264.13;2088581;28;46453;-69
2023/04/24 03:23:31;;;;;;;;;3.33;3.33;;;;;11.55;64.33;100272.03;2089454;28;45452;-69
2023/04/24 03:24:31;;;;;;;;;4.50;4.50;;;;;11.55;64.43;100262.28;2087221;28;46469;-69
2023/04/24 03:25:31;;;;;;;;;4.00;4.00;;;;;11.55;64.50;100267.59;2088081;28;46715;-69
2023/04/24 03:26:32;;;;;;;;;4.00;3.00;;;;;11.54;64.14;100272.97;2088495;28;47485;-70
2023/04/24 03:27:32;;;;;;;;;6.00;4.00;;;;;11.53;64.26;100269.44;2093434;28;47590;-70
2023/04/24 03:28:32;;;;;;;;;4.00;3.67;;;;;11.53;64.49;100272.09;2088865;28;46282;-68
2023/04/24 03:29:33;;;;;;;;;6.00;4.00;;;;;11.53;64.16;100271.22;2089294;28;46661;-70
2023/04/24 03:30:33;;;;;;;;;4.00;4.00;;;;;11.53;64.80;100273.88;2087747;28;46213;-69
2023/04/24 03:31:33;;;;;;;;;3.67;3.67;;;;;11.52;64.09;100266.84;2089273;28;46549;-71
2023/04/24 03:32:34;;;;;;;;;4.67;4.67;;;;;11.50;64.42;100262.44;2088394;28;47100;-69
2023/04/24 03:33:35;;;;;;;;;2.00;2.00;;;;;11.50;64.18;100265.09;2088439;28;45669;-70
2023/04/24 03:34:36;;;;;;;;;2.25;2.25;;;;;11.51;64.37;100268.63;2079718;28;46505;-70
2023/04/24 03:35:36;;;;;;;;;4.00;3.00;;;;;11.52;64.13;100258.88;2081281;28;45444;-69
2023/04/24 03:36:36;;;;;;;;;3.00;3.00;;;;;11.50;64.40;100265.09;2084994;28;45607;-69
2023/04/24 03:37:37;;;;;;;;;2.00;2.00;;;;;11.52;64.14;100264.19;2088466;28;46625;-69
2023/04/24 03:38:37;;;;;;;;;3.33;3.33;;;;;11.52;64.38;100274.81;2086798;28;46591;-70
2023/04/24 03:39:37;;;;;;;;;3.67;3.00;;;;;11.53;64.28;100268.56;2081192;28;46719;-71
2023/04/24 03:40:38;;;;;;;;;5.33;4.67;;;;;11.52;64.06;100266.84;2085840;28;46591;-69
2023/04/24 03:41:38;;;;;;;;;5.00;5.00;;;;;11.53;64.31;100264.13;2089189;28;45570;-69
2023/04/24 03:42:38;;;;;;;;;4.25;3.75;;;;;11.54;64.34;100267.66;2096790;28;46219;-69
2023/04/24 03:43:39;;;;;;;;;3.33;3.33;;;;;11.55;64.37;100266.72;2085686;28;46896;-69
2023/04/24 03:44:39;;;;;;;;;3.33;3.33;;;;;11.55;64.70;100262.28;2081024;28;45801;-69
2023/04/24 03:45:39;;;;;;;;;2.00;2.00;;;;;11.56;64.06;100268.47;2087988;28;45801;-69
2023/04/24 03:46:40;;;;;;;;;3.00;2.33;;;;;11.55;64.50;100264.94;2087654;28;46488;-69
2023/04/24 03:47:40;;;;;;;;;3.00;3.00;;;;;11.56;64.40;100268.47;2088463;28;46363;-70
2023/04/24 03:48:40;;;;;;;;;3.67;3.67;;;;;11.58;64.34;100270.19;2092253;28;45239;-69
2023/04/24 03:49:41;;;;;;;;;4.67;4.00;;;;;11.59;64.17;100279.03;2088824;28;47046;-70
2023/04/24 03:50:41;;;;;;;;;3.00;3.00;;;;;11.60;64.45;100271.00;2083218;28;45298;-69
2023/04/24 03:51:42;;;;;;;;;4.00;3.00;;;;;11.62;64.25;100285.09;2089563;28;45433;-69
2023/04/24 03:52:42;;;;;;;;;4.00;3.33;;;;;11.63;64.34;100272.69;2096609;28;46443;-68
2023/04/24 03:53:42;;;;;;;;;3.33;3.33;;;;;11.64;64.31;100280.59;2097607;28;45955;-69
2023/04/24 03:54:42;;;;;;;;;3.00;3.00;;;;;11.64;64.24;100282.38;2097219;28;45395;-69
2023/04/24 03:55:43;;;;;;;;;6.33;4.33;;;;;11.63;64.28;100273.53;2105745;28;45479;-68
2023/04/24 03:56:43;;;;;;;;;2.67;2.67;;;;;11.62;64.23;100281.56;2097089;28;46430;-69
2023/04/24 03:57:43;;;;;;;;;3.00;3.00;;;;;11.61;64.18;100278.03;2097914;28;45418;-70
2023/04/24 03:58:44;;;;;;;;;3.00;2.00;;;;;11.61;64.16;100277.19;2088917;28;45433;-69
2023/04/24 03:59:44;;;;;;;;;5.00;4.00;;;;;11.60;64.18;100280.75;2089452;28;45127;-69
2023/04/24 04:00:46;;;;;;;;;5.33;5.00;;;;;11.59;64.29;100279.03;2089232;28;46778;-69
2023/04/24 04:01:46;;;;;;;;;5.00;3.00;;;;;11.59;64.35;100281.69;2089009;28;46902;-70
2023/04/24 04:02:47;;;;;;;;;5.33;4.00;;;;;11.60;64.27;100280.75;2090120;28;46414;-69
2023/04/24 04:03:47;;;;;;;;;4.67;4.33;;;;;11.61;64.20;100282.50;2097247;28;46704;-69
2023/04/24 04:04:47;;;;;;;;;4.33;3.67;;;;;11.60;64.28;100286.94;2093124;28;46541;-69
2023/04/24 04:05:48;;;;;;;;;5.00;5.00;;;;;11.59;64.41;100279.88;2080784;28;46990;-69
2023/04/24 04:06:48;;;;;;;;;4.00;4.00;;;;;11.60;64.41;100292.25;2087914;28;46479;-71
2023/04/24 04:07:49;;;;;;;;;4.67;3.33;;;;;11.61;64.27;100291.34;2091571;28;46496;-70
2023/04/24 04:08:49;;;;;;;;;5.00;5.00;;;;;11.61;64.37;100299.31;2091857;28;45933;-70
2023/04/24 04:09:49;;;;;;;;;3.67;2.33;;;;;11.61;64.22;100299.31;2095644;28;45554;-70
2023/04/24 04:10:50;;;;;;;;;3.33;3.33;;;;;11.60;64.35;100304.69;2097281;28;46281;-68
2023/04/24 04:11:50;;;;;;;;;5.00;5.00;;;;;11.59;64.13;100300.28;2097434;28;46837;-69
2023/04/24 04:12:50;;;;;;;;;4.00;3.67;;;;;11.57;64.41;100304.78;2104646;28;46178;-69
2023/04/24 04:13:51;;;;;;;;;4.33;4.00;;;;;11.56;64.67;100303.00;2099614;28;46015;-69
2023/04/24 04:14:51;;;;;;;;;5.67;5.00;;;;;11.55;64.40;100299.50;2088933;28;47854;-69
2023/04/24 04:15:52;;;;;;;;;3.00;3.00;;;;;11.55;64.41;100304.81;2088805;28;48162;-69
2023/04/24 04:16:52;;;;;;;;;4.25;4.25;;;;;11.54;64.17;100300.41;2089182;28;47454;-69
2023/04/24 04:17:52;;;;;;;;;5.67;4.00;;;;;11.52;64.61;100299.59;2088896;28;46661;-69
2023/04/24 04:18:53;;;;;;;;;4.00;4.00;;;;;11.52;64.52;100310.22;2090459;28;47164;-69
2023/04/24 04:19:54;;;;;;;;;2.33;2.00;;;;;11.52;64.55;100309.34;2096719;28;46573;-69
2023/04/24 04:20:56;;;;;;;;;3.40;3.40;;;;;11.52;64.61;100302.25;2095075;28;46740;-69
2023/04/24 04:21:57;;;;;;;;;3.75;3.50;;;;;11.52;64.42;100304.91;2085555;28;46206;-69
2023/04/24 04:22:57;;;;;;;;;5.00;5.00;;;;;11.52;64.67;100307.56;2072438;28;45776;-69
2023/04/24 04:23:57;;;;;;;;;3.33;3.33;;;;;11.52;64.46;100307.56;2095758;28;46133;-69
2023/04/24 04:24:58;;;;;;;;;4.67;4.67;;;;;11.52;64.70;100307.56;2105154;28;47310;-68
2023/04/24 04:25:58;;;;;;;;;6.67;5.00;;;;;11.52;64.54;100309.34;2092413;28;45540;-70
2023/04/24 04:26:59;;;;;;;;;5.00;4.00;;;;;11.52;64.68;100310.22;2083187;28;46803;-70
2023/04/24 04:27:59;;;;;;;;;3.33;3.33;;;;;11.53;64.44;100314.63;2088733;28;46511;-69
2023/04/24 04:29:03;;;;;;;;;5.67;5.00;;;;;11.53;64.60;100316.41;2095704;28;46414;-70
2023/04/24 04:30:07;;;;;;;;;4.25;4.25;;;;;11.54;64.83;100320.81;2092747;28;46544;-69
2023/04/24 04:31:08;;;;;;;;;4.25;4.00;;;;;11.54;64.62;100323.47;2097606;28;45588;-70
2023/04/24 04:32:08;;;;;;;;;3.75;3.00;;;;;11.55;64.61;100315.44;2100117;28;46789;-68
2023/04/24 04:33:10;;;;;;;;;3.67;3.67;;;;;11.56;64.78;100311.00;2088244;28;46246;-71
2023/04/24 04:34:11;;;;;;;;;4.75;4.00;;;;;11.57;64.51;100318.06;2088737;28;45955;-69
2023/04/24 04:35:12;;;;;;;;;6.00;4.00;;;;;11.56;64.72;100318.97;2093035;28;47372;-70
2023/04/24 04:36:12;;;;;;;;;6.00;5.00;;;;;11.55;64.94;100325.19;2096930;28;45923;-69
2023/04/24 04:37:13;;;;;;;;;4.67;4.67;;;;;11.53;64.58;100325.25;2095995;28;45602;-70
2023/04/24 04:38:14;;;;;;;;;4.50;4.50;;;;;11.55;64.94;100317.22;2089144;28;45862;-69
2023/04/24 04:39:15;;;;;;;;;6.00;6.00;;;;;11.55;64.73;100325.19;2086680;28;47126;-69
2023/04/24 04:40:15;;;;;;;;;5.00;5.00;;;;;11.57;64.75;100331.34;2095868;28;47426;-69
2023/04/24 04:41:17;;;;;;;;;6.67;6.67;;;;;11.58;64.60;100330.44;2084949;28;45909;-69
2023/04/24 04:42:18;;;;;;;;;6.00;4.75;;;;;11.56;64.81;100325.19;2088127;28;46851;-70